Terminal Aerodrome Forecast
Issued by NWS Kansas City/Pleasant Hill, MO

Home | Current Version | Previous Version | Text Only | Print | Product List | Glossary On
Versions: 1 2 3 4 5 6 7 8 9 10 11 12 13
000
FTUS43 KEAX 252300
TAFMCI
TAF
KMCI 252334Z 2600/2624 34023G33KT 6SM -SN OVC014
      TEMPO 2600/2601 -RA
     FM260300 36022G31KT P6SM VCSH OVC015
     FM261200 36015G23KT P6SM BKN020
     FM261800 36013G21KT P6SM SCT030=

USA.gov is the U.S. government's official web portal to all federal, state and local government web resources and services.